createdAt,value
2023-08-08T00:03:48.968Z,100
2023-08-08T00:13:49.901Z,100
2023-08-08T00:33:50.439Z,100
2023-08-08T00:43:51.061Z,100
2023-08-08T00:53:51.785Z,100
2023-08-08T01:03:52.742Z,100
2023-08-08T01:13:53.139Z,100
2023-08-08T01:23:53.453Z,100
2023-08-08T01:33:54.473Z,100
2023-08-08T01:43:55.232Z,100
2023-08-08T01:53:55.647Z,100
2023-08-08T02:03:56.475Z,100
2023-08-08T02:13:57.156Z,99
2023-08-08T02:33:58.529Z,99
2023-08-08T02:43:59.309Z,99
2023-08-08T02:53:59.490Z,99
2023-08-08T03:04:00.289Z,99
2023-08-08T03:14:00.999Z,100
2023-08-08T03:24:01.616Z,100
2023-08-08T03:44:03.527Z,100
2023-08-08T03:54:04.071Z,100
2023-08-08T04:04:04.384Z,100
2023-08-08T04:14:05.400Z,100
2023-08-08T04:24:06.307Z,100
2023-08-08T04:34:06.530Z,100
2023-08-08T04:44:06.997Z,100
2023-08-08T04:54:07.332Z,100
2023-08-08T05:04:08.044Z,100
2023-08-08T05:14:08.562Z,100
2023-08-08T05:24:09.061Z,100
2023-08-08T05:34:09.397Z,100
2023-08-08T05:44:09.730Z,100
2023-08-08T06:04:10.878Z,100
2023-08-08T06:14:11.861Z,100
2023-08-08T06:24:12.987Z,100
2023-08-08T06:34:13.207Z,100
2023-08-08T06:44:13.928Z,100
2023-08-08T07:04:15.006Z,100
2023-08-08T07:14:15.928Z,100
2023-08-08T07:24:16.504Z,100
2023-08-08T07:34:16.847Z,100
2023-08-08T08:04:18.113Z,98
2023-08-08T08:14:18.450Z,97
2023-08-08T08:34:19.912Z,92
2023-08-08T08:54:21.141Z,90
2023-08-08T09:14:22.725Z,84
2023-08-08T09:34:23.882Z,77
2023-08-08T09:54:25.089Z,75
2023-08-08T10:04:25.563Z,74
2023-08-08T10:14:26.071Z,74
2023-08-08T10:34:27.878Z,69
2023-08-08T10:44:28.689Z,68
2023-08-08T10:54:29.103Z,73
2023-08-08T11:04:29.767Z,70
2023-08-08T11:14:30.515Z,73
2023-08-08T11:24:30.944Z,71
2023-08-08T11:44:32.238Z,74
2023-08-08T11:54:32.645Z,77
2023-08-08T12:04:32.954Z,79
2023-08-08T12:14:34.564Z,76
2023-08-08T12:24:34.189Z,74
2023-08-08T12:34:34.721Z,74
2023-08-08T12:44:35.371Z,73
2023-08-08T12:54:36.397Z,76
2023-08-08T13:04:36.737Z,71
2023-08-08T13:24:37.550Z,73
2023-08-08T13:34:37.747Z,74
2023-08-08T13:54:38.937Z,72
2023-08-08T14:04:39.387Z,71
2023-08-08T14:14:40.173Z,68
2023-08-08T14:24:40.560Z,69
2023-08-08T14:44:42.609Z,72
2023-08-08T15:04:43.242Z,70
2023-08-08T15:14:43.560Z,69
2023-08-08T15:34:44.341Z,67
2023-08-08T15:44:44.607Z,67
2023-08-08T15:54:45.295Z,64
2023-08-08T16:04:46.179Z,65
2023-08-08T16:14:46.449Z,65
2023-08-08T16:24:46.990Z,66
2023-08-08T16:34:47.105Z,67
2023-08-08T16:44:47.205Z,67
2023-08-08T17:04:48.438Z,66
2023-08-08T17:14:49.346Z,67
2023-08-08T17:24:49.675Z,68
2023-08-08T17:44:50.997Z,70
2023-08-08T17:54:51.191Z,71
2023-08-08T18:04:52.093Z,73
2023-08-08T18:14:52.359Z,74
2023-08-08T18:34:54.288Z,76
2023-08-08T19:04:56.900Z,77
2023-08-08T19:14:57.626Z,79
2023-08-08T19:34:58.772Z,84
2023-08-08T19:44:59.590Z,87
2023-08-08T19:55:00.283Z,89
2023-08-08T20:05:01.233Z,91
2023-08-08T20:15:01.495Z,94
2023-08-08T20:25:01.659Z,97
2023-08-08T20:35:02.108Z,99
2023-08-08T20:45:02.799Z,99
2023-08-08T21:15:04.592Z,100
2023-08-08T21:25:04.891Z,100
2023-08-08T21:35:05.715Z,100
2023-08-08T21:45:06.188Z,100
2023-08-08T21:55:06.482Z,100
2023-08-08T22:15:07.527Z,99
2023-08-08T22:25:08.174Z,99
2023-08-08T22:35:08.798Z,99
2023-08-08T22:45:09.007Z,99
2023-08-08T23:05:10.333Z,99
2023-08-08T23:15:11.046Z,98
2023-08-08T23:25:11.933Z,98
2023-08-08T23:35:12.430Z,98
2023-08-08T23:45:12.775Z,98
2023-08-08T23:55:13.529Z,98
